sensor_id;sensor_type;location;lat;lon;timestamp;pressure;altitude;pressure_sealevel;temperature;humidity
67345;BME280;54230;52.402;6.276;2024-02-21T00:00:00;102100.0;;;11.5;79.3
67345;BME280;54230;52.402;6.276;2024-02-21T00:05:00;102100.0;;;11.6;79.3
67345;BME280;54230;52.402;6.276;2024-02-21T00:10:00;102100.0;;;11.6;79.2
67345;BME280;54230;52.402;6.276;2024-02-21T00:15:00;102090.0;;;11.5;79.3
67345;BME280;54230;52.402;6.276;2024-02-21T00:20:00;102100.0;;;11.6;79.0
67345;BME280;54230;52.402;6.276;2024-02-21T00:25:00;102100.0;;;11.5;79.0
67345;BME280;54230;52.402;6.276;2024-02-21T00:30:00;102100.0;;;11.6;78.9
67345;BME280;54230;52.402;6.276;2024-02-21T00:35:00;102090.0;;;11.6;78.8
67345;BME280;54230;52.402;6.276;2024-02-21T00:40:00;102090.0;;;11.6;78.6
67345;BME280;54230;52.402;6.276;2024-02-21T00:45:00;102080.0;;;11.6;78.5
67345;BME280;54230;52.402;6.276;2024-02-21T00:50:00;102060.0;;;11.6;78.4
67345;BME280;54230;52.402;6.276;2024-02-21T00:55:00;102060.0;;;11.7;78.2
67345;BME280;54230;52.402;6.276;2024-02-21T01:00:00;102040.0;;;11.7;78.1
67345;BME280;54230;52.402;6.276;2024-02-21T01:05:00;102040.0;;;11.7;78.1
67345;BME280;54230;52.402;6.276;2024-02-21T01:10:00;102040.0;;;11.6;78.1
67345;BME280;54230;52.402;6.276;2024-02-21T01:15:00;102030.0;;;11.7;77.8
67345;BME280;54230;52.402;6.276;2024-02-21T01:20:00;102040.0;;;11.6;78.1
67345;BME280;54230;52.402;6.276;2024-02-21T01:25:00;102040.0;;;11.6;78.2
67345;BME280;54230;52.402;6.276;2024-02-21T01:30:00;102030.0;;;11.5;78.4
67345;BME280;54230;52.402;6.276;2024-02-21T01:35:00;102020.0;;;11.5;78.4
67345;BME280;54230;52.402;6.276;2024-02-21T01:40:00;102010.0;;;11.5;78.5
67345;BME280;54230;52.402;6.276;2024-02-21T01:45:00;101990.0;;;11.6;78.4
67345;BME280;54230;52.402;6.276;2024-02-21T01:50:00;101990.0;;;11.6;78.1
67345;BME280;54230;52.402;6.276;2024-02-21T01:55:00;101980.0;;;11.6;78.2
67345;BME280;54230;52.402;6.276;2024-02-21T02:00:00;101980.0;;;11.5;78.2
67345;BME280;54230;52.402;6.276;2024-02-21T02:05:00;101980.0;;;11.5;78.4
67345;BME280;54230;52.402;6.276;2024-02-21T02:10:00;101970.0;;;11.5;78.5
67345;BME280;54230;52.402;6.276;2024-02-21T02:15:01;101960.0;;;11.4;78.6
67345;BME280;54230;52.402;6.276;2024-02-21T02:20:00;101960.0;;;11.4;78.7
67345;BME280;54230;52.402;6.276;2024-02-21T02:25:00;101950.0;;;11.5;78.6
67345;BME280;54230;52.402;6.276;2024-02-21T02:30:00;101940.0;;;11.4;78.7
67345;BME280;54230;52.402;6.276;2024-02-21T02:35:00;101950.0;;;11.4;78.8
67345;BME280;54230;52.402;6.276;2024-02-21T02:40:00;101960.0;;;11.4;79.0
67345;BME280;54230;52.402;6.276;2024-02-21T02:45:00;101960.0;;;11.4;78.9
67345;BME280;54230;52.402;6.276;2024-02-21T02:50:00;101950.0;;;11.4;78.8
67345;BME280;54230;52.402;6.276;2024-02-21T02:55:00;101960.0;;;11.4;78.8
67345;BME280;54230;52.402;6.276;2024-02-21T03:00:00;101950.0;;;11.4;78.8
67345;BME280;54230;52.402;6.276;2024-02-21T03:05:00;101950.0;;;11.5;78.4
67345;BME280;54230;52.402;6.276;2024-02-21T03:10:00;101940.0;;;11.5;78.7
67345;BME280;54230;52.402;6.276;2024-02-21T03:15:00;101930.0;;;11.5;78.6
67345;BME280;54230;52.402;6.276;2024-02-21T03:20:00;101930.0;;;11.5;78.5
67345;BME280;54230;52.402;6.276;2024-02-21T03:25:00;101930.0;;;11.5;78.4
67345;BME280;54230;52.402;6.276;2024-02-21T03:30:00;101920.0;;;11.5;78.6
67345;BME280;54230;52.402;6.276;2024-02-21T03:35:00;101910.0;;;11.5;78.6
67345;BME280;54230;52.402;6.276;2024-02-21T03:40:00;101920.0;;;11.5;78.5
67345;BME280;54230;52.402;6.276;2024-02-21T03:45:00;101900.0;;;11.5;78.7
67345;BME280;54230;52.402;6.276;2024-02-21T03:50:00;101900.0;;;11.6;78.5
67345;BME280;54230;52.402;6.276;2024-02-21T03:55:00;101900.0;;;11.5;78.6
67345;BME280;54230;52.402;6.276;2024-02-21T04:00:00;101890.0;;;11.5;78.6
67345;BME280;54230;52.402;6.276;2024-02-21T04:05:00;101890.0;;;11.5;78.7
67345;BME280;54230;52.402;6.276;2024-02-21T04:10:00;101880.0;;;11.5;78.6
67345;BME280;54230;52.402;6.276;2024-02-21T04:15:00;101870.0;;;11.5;78.7
67345;BME280;54230;52.402;6.276;2024-02-21T04:20:02;101870.0;;;11.5;78.7
67345;BME280;54230;52.402;6.276;2024-02-21T04:25:00;101870.0;;;11.5;78.7
67345;BME280;54230;52.402;6.276;2024-02-21T04:30:00;101880.0;;;11.6;78.5
67345;BME280;54230;52.402;6.276;2024-02-21T04:35:00;101870.0;;;11.6;78.4
67345;BME280;54230;52.402;6.276;2024-02-21T04:40:00;101860.0;;;11.6;78.2
67345;BME280;54230;52.402;6.276;2024-02-21T04:45:00;101850.0;;;11.6;78.2
67345;BME280;54230;52.402;6.276;2024-02-21T04:50:00;101850.0;;;11.6;78.1
67345;BME280;54230;52.402;6.276;2024-02-21T04:55:00;101850.0;;;11.5;78.0
67345;BME280;54230;52.402;6.276;2024-02-21T05:00:00;101840.0;;;11.6;77.9
67345;BME280;54230;52.402;6.276;2024-02-21T05:05:00;101840.0;;;11.5;77.9
67345;BME280;54230;52.402;6.276;2024-02-21T05:10:00;101830.0;;;11.5;77.8
67345;BME280;54230;52.402;6.276;2024-02-21T05:15:00;101840.0;;;11.5;78.0
67345;BME280;54230;52.402;6.276;2024-02-21T05:20:00;101830.0;;;11.5;78.0
67345;BME280;54230;52.402;6.276;2024-02-21T05:25:00;101830.0;;;11.5;78.0
67345;BME280;54230;52.402;6.276;2024-02-21T05:30:00;101820.0;;;11.5;78.0
67345;BME280;54230;52.402;6.276;2024-02-21T05:35:00;101810.0;;;11.4;78.0
67345;BME280;54230;52.402;6.276;2024-02-21T05:40:00;101810.0;;;11.4;78.3
67345;BME280;54230;52.402;6.276;2024-02-21T05:45:00;101810.0;;;11.4;78.2
67345;BME280;54230;52.402;6.276;2024-02-21T05:50:00;101800.0;;;11.4;78.0
67345;BME280;54230;52.402;6.276;2024-02-21T05:55:00;101800.0;;;11.4;77.8
67345;BME280;54230;52.402;6.276;2024-02-21T06:00:00;101790.0;;;11.4;77.9
67345;BME280;54230;52.402;6.276;2024-02-21T06:05:00;101780.0;;;11.4;77.8
67345;BME280;54230;52.402;6.276;2024-02-21T06:10:00;101760.0;;;11.3;78.2
67345;BME280;54230;52.402;6.276;2024-02-21T06:15:00;101770.0;;;11.3;78.0
67345;BME280;54230;52.402;6.276;2024-02-21T06:20:00;101760.0;;;11.4;78.0
67345;BME280;54230;52.402;6.276;2024-02-21T06:25:00;101760.0;;;11.4;77.8
67345;BME280;54230;52.402;6.276;2024-02-21T06:30:00;101760.0;;;11.3;78.0
67345;BME280;54230;52.402;6.276;2024-02-21T06:35:00;101760.0;;;11.3;78.2
67345;BME280;54230;52.402;6.276;2024-02-21T06:40:00;101760.0;;;11.3;78.1
67345;BME280;54230;52.402;6.276;2024-02-21T06:45:00;101760.0;;;11.3;77.9
67345;BME280;54230;52.402;6.276;2024-02-21T06:50:00;101760.0;;;11.4;78.0
67345;BME280;54230;52.402;6.276;2024-02-21T06:55:00;101760.0;;;11.2;78.5
67345;BME280;54230;52.402;6.276;2024-02-21T07:00:00;101760.0;;;11.4;78.9
67345;BME280;54230;52.402;6.276;2024-02-21T07:05:00;101760.0;;;11.3;78.7
67345;BME280;54230;52.402;6.276;2024-02-21T07:10:00;101760.0;;;11.4;78.6
67345;BME280;54230;52.402;6.276;2024-02-21T07:15:00;101760.0;;;11.4;78.1
67345;BME280;54230;52.402;6.276;2024-02-21T07:20:00;101760.0;;;11.3;78.4
67345;BME280;54230;52.402;6.276;2024-02-21T07:25:00;101750.0;;;11.4;79.1
67345;BME280;54230;52.402;6.276;2024-02-21T07:30:00;101740.0;;;11.6;78.9
67345;BME280;54230;52.402;6.276;2024-02-21T07:35:00;101740.0;;;11.7;78.8
67345;BME280;54230;52.402;6.276;2024-02-21T07:40:00;101740.0;;;11.6;78.1
67345;BME280;54230;52.402;6.276;2024-02-21T07:45:00;101720.0;;;11.6;78.2
67345;BME280;54230;52.402;6.276;2024-02-21T07:50:00;101730.0;;;11.5;77.8
67345;BME280;54230;52.402;6.276;2024-02-21T07:55:00;101720.0;;;11.5;77.7
67345;BME280;54230;52.402;6.276;2024-02-21T08:00:00;101700.0;;;11.5;77.7
67345;BME280;54230;52.402;6.276;2024-02-21T08:05:00;101690.0;;;11.4;77.5
67345;BME280;54230;52.402;6.276;2024-02-21T08:10:00;101680.0;;;11.6;77.2
67345;BME280;54230;52.402;6.276;2024-02-21T08:15:00;101670.0;;;11.6;77.0
67345;BME280;54230;52.402;6.276;2024-02-21T08:20:00;101670.0;;;11.7;76.6
67345;BME280;54230;52.402;6.276;2024-02-21T08:25:00;101670.0;;;11.8;76.3
67345;BME280;54230;52.402;6.276;2024-02-21T08:30:00;101660.0;;;11.8;75.8
67345;BME280;54230;52.402;6.276;2024-02-21T08:35:00;101660.0;;;11.8;75.8
67345;BME280;54230;52.402;6.276;2024-02-21T08:40:00;101650.0;;;11.8;75.6
67345;BME280;54230;52.402;6.276;2024-02-21T08:45:00;101640.0;;;11.9;75.3
67345;BME280;54230;52.402;6.276;2024-02-21T08:50:00;101630.0;;;12.1;75.3
67345;BME280;54230;52.402;6.276;2024-02-21T08:55:00;101630.0;;;12.1;74.8
67345;BME280;54230;52.402;6.276;2024-02-21T09:00:00;101620.0;;;12.2;74.3
67345;BME280;54230;52.402;6.276;2024-02-21T09:05:00;101620.0;;;12.2;74.0
67345;BME280;54230;52.402;6.276;2024-02-21T09:10:00;101610.0;;;12.1;74.0
67345;BME280;54230;52.402;6.276;2024-02-21T09:15:00;101620.0;;;12.1;73.8
67345;BME280;54230;52.402;6.276;2024-02-21T09:20:00;101610.0;;;12.0;74.0
67345;BME280;54230;52.402;6.276;2024-02-21T09:25:00;101610.0;;;12.0;74.3
67345;BME280;54230;52.402;6.276;2024-02-21T09:30:00;101610.0;;;12.2;74.1
67345;BME280;54230;52.402;6.276;2024-02-21T09:35:00;101600.0;;;12.1;73.7
67345;BME280;54230;52.402;6.276;2024-02-21T09:40:00;101590.0;;;12.2;73.4
67345;BME280;54230;52.402;6.276;2024-02-21T09:45:00;101580.0;;;12.1;73.2
67345;BME280;54230;52.402;6.276;2024-02-21T09:50:02;101580.0;;;12.1;73.5
67345;BME280;54230;52.402;6.276;2024-02-21T09:55:01;101570.0;;;12.3;73.3
67345;BME280;54230;52.402;6.276;2024-02-21T10:00:00;101560.0;;;12.5;72.9
67345;BME280;54230;52.402;6.276;2024-02-21T10:05:00;101550.0;;;12.5;72.4
67345;BME280;54230;52.402;6.276;2024-02-21T10:10:00;101530.0;;;12.5;72.3
67345;BME280;54230;52.402;6.276;2024-02-21T10:15:01;101520.0;;;12.6;71.9
67345;BME280;54230;52.402;6.276;2024-02-21T10:20:06;101510.0;;;12.5;71.8
67345;BME280;54230;52.402;6.276;2024-02-21T10:25:06;101510.0;;;12.6;71.6
67345;BME280;54230;52.402;6.276;2024-02-21T10:30:00;101490.0;;;12.7;71.6
67345;BME280;54230;52.402;6.276;2024-02-21T10:35:01;101490.0;;;12.9;71.2
67345;BME280;54230;52.402;6.276;2024-02-21T10:40:00;101480.0;;;13.0;70.7
67345;BME280;54230;52.402;6.276;2024-02-21T10:45:01;101460.0;;;13.1;70.2
67345;BME280;54230;52.402;6.276;2024-02-21T10:50:03;101450.0;;;13.0;69.8
67345;BME280;54230;52.402;6.276;2024-02-21T10:55:04;101450.0;;;12.8;69.5
67345;BME280;54230;52.402;6.276;2024-02-21T11:00:01;101440.0;;;12.9;69.3
67345;BME280;54230;52.402;6.276;2024-02-21T11:05:01;101440.0;;;13.0;68.7
67345;BME280;54230;52.402;6.276;2024-02-21T11:10:00;101430.0;;;12.9;68.7
67345;BME280;54230;52.402;6.276;2024-02-21T11:15:04;101420.0;;;13.0;68.7
67345;BME280;54230;52.402;6.276;2024-02-21T11:20:10;101410.0;;;13.1;68.5
67345;BME280;54230;52.402;6.276;2024-02-21T11:25:06;101400.0;;;13.0;68.3
67345;BME280;54230;52.402;6.276;2024-02-21T11:30:04;101380.0;;;13.0;68.5
67345;BME280;54230;52.402;6.276;2024-02-21T11:35:01;101360.0;;;13.1;68.7
67345;BME280;54230;52.402;6.276;2024-02-21T11:40:00;101340.0;;;13.0;68.5
67345;BME280;54230;52.402;6.276;2024-02-21T11:45:00;101320.0;;;12.9;68.8
67345;BME280;54230;52.402;6.276;2024-02-21T11:50:00;101300.0;;;12.9;68.9
67345;BME280;54230;52.402;6.276;2024-02-21T11:55:00;101280.0;;;12.8;69.2
67345;BME280;54230;52.402;6.276;2024-02-21T12:00:11;101280.0;;;12.9;69.5
67345;BME280;54230;52.402;6.276;2024-02-21T12:05:00;101300.0;;;12.7;69.4
67345;BME280;54230;52.402;6.276;2024-02-21T12:10:00;101300.0;;;12.6;70.0
67345;BME280;54230;52.402;6.276;2024-02-21T12:15:01;101290.0;;;12.6;70.4
67345;BME280;54230;52.402;6.276;2024-02-21T12:20:00;101290.0;;;12.5;70.8
67345;BME280;54230;52.402;6.276;2024-02-21T12:25:02;101260.0;;;12.5;71.2
67345;BME280;54230;52.402;6.276;2024-02-21T12:30:00;101260.0;;;12.5;71.0
67345;BME280;54230;52.402;6.276;2024-02-21T12:35:00;101260.0;;;12.3;71.3
67345;BME280;54230;52.402;6.276;2024-02-21T12:40:00;101230.0;;;12.1;71.6
67345;BME280;54230;52.402;6.276;2024-02-21T12:45:00;101200.0;;;12.2;71.7
67345;BME280;54230;52.402;6.276;2024-02-21T12:50:00;101180.0;;;12.2;71.4
67345;BME280;54230;52.402;6.276;2024-02-21T12:55:00;101150.0;;;12.6;70.7
67345;BME280;54230;52.402;6.276;2024-02-21T13:00:00;101120.0;;;13.1;69.4
67345;BME280;54230;52.402;6.276;2024-02-21T13:05:00;101130.0;;;13.1;68.4
67345;BME280;54230;52.402;6.276;2024-02-21T13:10:00;101110.0;;;13.1;68.2
67345;BME280;54230;52.402;6.276;2024-02-21T13:15:00;101090.0;;;13.3;67.7
67345;BME280;54230;52.402;6.276;2024-02-21T13:20:00;101060.0;;;13.4;67.3
67345;BME280;54230;52.402;6.276;2024-02-21T13:25:00;101050.0;;;13.4;66.7
67345;BME280;54230;52.402;6.276;2024-02-21T13:30:00;101040.0;;;13.3;66.7
67345;BME280;54230;52.402;6.276;2024-02-21T13:35:00;101010.0;;;13.2;66.2
67345;BME280;54230;52.402;6.276;2024-02-21T13:40:00;101010.0;;;13.3;66.4
67345;BME280;54230;52.402;6.276;2024-02-21T13:45:00;100990.0;;;13.4;65.9
67345;BME280;54230;52.402;6.276;2024-02-21T13:50:00;100980.0;;;13.2;66.1
67345;BME280;54230;52.402;6.276;2024-02-21T13:55:00;100950.0;;;13.3;65.8
67345;BME280;54230;52.402;6.276;2024-02-21T14:00:00;100940.0;;;13.4;65.4
67345;BME280;54230;52.402;6.276;2024-02-21T14:05:00;100940.0;;;13.5;65.3
67345;BME280;54230;52.402;6.276;2024-02-21T14:10:00;100940.0;;;13.3;65.5
67345;BME280;54230;52.402;6.276;2024-02-21T14:15:00;100920.0;;;13.2;65.7
67345;BME280;54230;52.402;6.276;2024-02-21T14:20:00;100900.0;;;13.3;65.8
67345;BME280;54230;52.402;6.276;2024-02-21T14:25:00;100900.0;;;13.4;65.7
67345;BME280;54230;52.402;6.276;2024-02-21T14:30:00;100880.0;;;13.3;65.7
67345;BME280;54230;52.402;6.276;2024-02-21T14:35:00;100850.0;;;13.3;65.8
67345;BME280;54230;52.402;6.276;2024-02-21T14:40:00;100830.0;;;13.4;65.8
67345;BME280;54230;52.402;6.276;2024-02-21T14:45:00;100810.0;;;13.4;65.3
67345;BME280;54230;52.402;6.276;2024-02-21T14:50:02;100790.0;;;13.4;65.3
67345;BME280;54230;52.402;6.276;2024-02-21T14:55:00;100790.0;;;13.4;65.4
67345;BME280;54230;52.402;6.276;2024-02-21T15:00:00;100790.0;;;13.2;65.4
67345;BME280;54230;52.402;6.276;2024-02-21T15:05:00;100780.0;;;13.2;65.4
67345;BME280;54230;52.402;6.276;2024-02-21T15:10:00;100770.0;;;13.2;65.1
67345;BME280;54230;52.402;6.276;2024-02-21T15:15:00;100760.0;;;13.2;65.1
67345;BME280;54230;52.402;6.276;2024-02-21T15:20:00;100750.0;;;13.2;64.9
67345;BME280;54230;52.402;6.276;2024-02-21T15:25:00;100720.0;;;13.2;65.1
67345;BME280;54230;52.402;6.276;2024-02-21T15:30:01;100720.0;;;13.1;65.0
67345;BME280;54230;52.402;6.276;2024-02-21T15:35:00;100700.0;;;13.0;65.1
67345;BME280;54230;52.402;6.276;2024-02-21T15:40:00;100680.0;;;13.0;65.6
67345;BME280;54230;52.402;6.276;2024-02-21T15:45:00;100670.0;;;12.9;65.8
67345;BME280;54230;52.402;6.276;2024-02-21T15:50:00;100670.0;;;12.7;66.7
67345;BME280;54230;52.402;6.276;2024-02-21T15:55:00;100650.0;;;12.6;67.3
67345;BME280;54230;52.402;6.276;2024-02-21T16:00:00;100640.0;;;12.5;67.7
67345;BME280;54230;52.402;6.276;2024-02-21T16:05:00;100640.0;;;12.4;68.2
67345;BME280;54230;52.402;6.276;2024-02-21T16:10:00;100620.0;;;12.2;68.9
67345;BME280;54230;52.402;6.276;2024-02-21T16:15:00;100610.0;;;12.1;69.7
67345;BME280;54230;52.402;6.276;2024-02-21T16:20:01;100590.0;;;12.0;70.5
67345;BME280;54230;52.402;6.276;2024-02-21T16:25:00;100590.0;;;12.6;71.9
67345;BME280;54230;52.402;6.276;2024-02-21T16:30:00;100570.0;;;12.8;71.5
67345;BME280;54230;52.402;6.276;2024-02-21T16:35:00;100540.0;;;12.9;70.9
67345;BME280;54230;52.402;6.276;2024-02-21T16:40:00;100520.0;;;12.8;71.4
67345;BME280;54230;52.402;6.276;2024-02-21T16:45:00;100510.0;;;12.7;71.8
67345;BME280;54230;52.402;6.276;2024-02-21T16:50:00;100490.0;;;12.5;72.6
67345;BME280;54230;52.402;6.276;2024-02-21T16:55:00;100480.0;;;12.8;72.6
67345;BME280;54230;52.402;6.276;2024-02-21T17:00:00;100460.0;;;12.8;72.8
67345;BME280;54230;52.402;6.276;2024-02-21T17:05:00;100460.0;;;12.5;72.9
67345;BME280;54230;52.402;6.276;2024-02-21T17:10:00;100440.0;;;12.8;73.1
67345;BME280;54230;52.402;6.276;2024-02-21T17:15:00;100450.0;;;12.6;73.4
67345;BME280;54230;52.402;6.276;2024-02-21T17:20:00;100450.0;;;12.5;74.3
67345;BME280;54230;52.402;6.276;2024-02-21T17:25:00;100450.0;;;12.6;74.0
67345;BME280;54230;52.402;6.276;2024-02-21T17:30:00;100440.0;;;12.4;74.5
67345;BME280;54230;52.402;6.276;2024-02-21T17:35:00;100430.0;;;12.4;74.8
67345;BME280;54230;52.402;6.276;2024-02-21T17:40:00;100430.0;;;12.2;76.2
67345;BME280;54230;52.402;6.276;2024-02-21T17:45:00;100440.0;;;12.0;76.5
67345;BME280;54230;52.402;6.276;2024-02-21T17:50:00;100420.0;;;11.9;76.9
67345;BME280;54230;52.402;6.276;2024-02-21T17:55:00;100410.0;;;11.8;78.2
67345;BME280;54230;52.402;6.276;2024-02-21T18:00:00;100400.0;;;11.9;78.2
67345;BME280;54230;52.402;6.276;2024-02-21T18:05:00;100400.0;;;11.9;78.0
67345;BME280;54230;52.402;6.276;2024-02-21T18:10:00;100390.0;;;11.8;77.3
67345;BME280;54230;52.402;6.276;2024-02-21T18:15:00;100370.0;;;11.4;77.6
67345;BME280;54230;52.402;6.276;2024-02-21T18:20:00;100370.0;;;11.2;78.7
67345;BME280;54230;52.402;6.276;2024-02-21T18:25:00;100350.0;;;11.1;79.3
67345;BME280;54230;52.402;6.276;2024-02-21T18:30:00;100340.0;;;11.0;79.9
67345;BME280;54230;52.402;6.276;2024-02-21T18:35:00;100320.0;;;11.0;80.4
67345;BME280;54230;52.402;6.276;2024-02-21T18:40:00;100320.0;;;11.0;80.9
67345;BME280;54230;52.402;6.276;2024-02-21T18:45:00;100310.0;;;10.9;81.3
67345;BME280;54230;52.402;6.276;2024-02-21T18:50:00;100290.0;;;11.0;81.4
67345;BME280;54230;52.402;6.276;2024-02-21T18:55:00;100290.0;;;10.9;81.7
67345;BME280;54230;52.402;6.276;2024-02-21T19:00:00;100280.0;;;10.9;82.0
67345;BME280;54230;52.402;6.276;2024-02-21T19:05:00;100270.0;;;10.8;82.2
67345;BME280;54230;52.402;6.276;2024-02-21T19:10:00;100250.0;;;10.7;82.4
67345;BME280;54230;52.402;6.276;2024-02-21T19:15:00;100240.0;;;10.9;82.6
67345;BME280;54230;52.402;6.276;2024-02-21T19:20:00;100230.0;;;10.9;82.3
67345;BME280;54230;52.402;6.276;2024-02-21T19:25:00;100210.0;;;10.9;82.4
67345;BME280;54230;52.402;6.276;2024-02-21T19:30:00;100210.0;;;10.9;82.5
67345;BME280;54230;52.402;6.276;2024-02-21T19:35:00;100190.0;;;10.9;82.5
67345;BME280;54230;52.402;6.276;2024-02-21T19:40:00;100180.0;;;11.0;82.1
67345;BME280;54230;52.402;6.276;2024-02-21T19:45:00;100190.0;;;10.8;82.6
67345;BME280;54230;52.402;6.276;2024-02-21T19:50:00;100160.0;;;10.8;82.8
67345;BME280;54230;52.402;6.276;2024-02-21T19:55:00;100160.0;;;10.8;83.0
67345;BME280;54230;52.402;6.276;2024-02-21T20:00:00;100130.0;;;10.7;83.5
67345;BME280;54230;52.402;6.276;2024-02-21T20:05:00;100120.0;;;10.8;84.0
67345;BME280;54230;52.402;6.276;2024-02-21T20:10:00;100120.0;;;10.7;84.2
67345;BME280;54230;52.402;6.276;2024-02-21T20:15:00;100120.0;;;10.8;84.3
67345;BME280;54230;52.402;6.276;2024-02-21T20:20:00;100090.0;;;10.9;84.3
67345;BME280;54230;52.402;6.276;2024-02-21T20:25:00;100100.0;;;10.8;84.7
67345;BME280;54230;52.402;6.276;2024-02-21T20:30:00;100090.0;;;10.7;85.3
67345;BME280;54230;52.402;6.276;2024-02-21T20:35:00;100080.0;;;10.6;85.6
67345;BME280;54230;52.402;6.276;2024-02-21T20:40:00;100070.0;;;10.8;85.4
67345;BME280;54230;52.402;6.276;2024-02-21T20:45:00;100050.0;;;10.7;85.5
67345;BME280;54230;52.402;6.276;2024-02-21T20:50:00;100050.0;;;10.6;86.1
67345;BME280;54230;52.402;6.276;2024-02-21T20:55:00;100040.0;;;10.8;86.2
67345;BME280;54230;52.402;6.276;2024-02-21T21:00:00;100020.0;;;10.7;86.5
67345;BME280;54230;52.402;6.276;2024-02-21T21:05:00;100020.0;;;10.7;86.6
67345;BME280;54230;52.402;6.276;2024-02-21T21:10:00;100010.0;;;10.6;86.9
67345;BME280;54230;52.402;6.276;2024-02-21T21:15:00;100010.0;;;10.8;87.0
67345;BME280;54230;52.402;6.276;2024-02-21T21:20:00;100000.0;;;10.8;87.0
67345;BME280;54230;52.402;6.276;2024-02-21T21:25:00;100000.0;;;10.9;86.8
67345;BME280;54230;52.402;6.276;2024-02-21T21:30:00;99990.0;;;10.9;86.6
67345;BME280;54230;52.402;6.276;2024-02-21T21:35:00;99980.0;;;10.8;86.6
67345;BME280;54230;52.402;6.276;2024-02-21T21:40:00;99980.0;;;10.8;87.2
67345;BME280;54230;52.402;6.276;2024-02-21T21:45:00;99970.0;;;10.7;87.6
67345;BME280;54230;52.402;6.276;2024-02-21T21:50:00;99970.0;;;10.6;88.1
67345;BME280;54230;52.402;6.276;2024-02-21T21:55:00;99970.0;;;10.7;88.3
67345;BME280;54230;52.402;6.276;2024-02-21T22:00:00;99960.0;;;10.8;88.5
67345;BME280;54230;52.402;6.276;2024-02-21T22:05:00;99960.0;;;10.8;88.8
67345;BME280;54230;52.402;6.276;2024-02-21T22:10:00;99940.0;;;10.9;88.8
67345;BME280;54230;52.402;6.276;2024-02-21T22:15:00;99930.0;;;10.9;89.1
67345;BME280;54230;52.402;6.276;2024-02-21T22:20:00;99920.0;;;10.8;89.8
67345;BME280;54230;52.402;6.276;2024-02-21T22:25:00;99910.0;;;10.8;89.6
67345;BME280;54230;52.402;6.276;2024-02-21T22:30:00;99900.0;;;10.8;89.9
67345;BME280;54230;52.402;6.276;2024-02-21T22:35:00;99890.0;;;10.8;89.8
67345;BME280;54230;52.402;6.276;2024-02-21T22:40:00;99890.0;;;10.9;89.6
67345;BME280;54230;52.402;6.276;2024-02-21T22:45:00;99890.0;;;11.0;89.6
67345;BME280;54230;52.402;6.276;2024-02-21T22:50:00;99870.0;;;11.1;89.8
67345;BME280;54230;52.402;6.276;2024-02-21T22:55:00;99870.0;;;11.0;90.0
67345;BME280;54230;52.402;6.276;2024-02-21T23:00:00;99860.0;;;11.1;89.7
67345;BME280;54230;52.402;6.276;2024-02-21T23:05:00;99840.0;;;11.2;90.0
67345;BME280;54230;52.402;6.276;2024-02-21T23:10:00;99840.0;;;11.1;90.0
67345;BME280;54230;52.402;6.276;2024-02-21T23:15:00;99850.0;;;11.2;89.9
67345;BME280;54230;52.402;6.276;2024-02-21T23:20:00;99850.0;;;11.2;89.9
67345;BME280;54230;52.402;6.276;2024-02-21T23:25:00;99850.0;;;11.3;89.9
67345;BME280;54230;52.402;6.276;2024-02-21T23:30:00;99840.0;;;11.4;89.8
67345;BME280;54230;52.402;6.276;2024-02-21T23:35:00;99840.0;;;11.5;89.4
67345;BME280;54230;52.402;6.276;2024-02-21T23:40:00;99840.0;;;11.5;89.2
67345;BME280;54230;52.402;6.276;2024-02-21T23:45:00;99830.0;;;11.5;89.1
67345;BME280;54230;52.402;6.276;2024-02-21T23:50:00;99830.0;;;11.6;88.9
67345;BME280;54230;52.402;6.276;2024-02-21T23:55:00;99820.0;;;11.5;88.9
